sensor_id;sensor_type;location;lat;lon;timestamp;P1;durP1;ratioP1;P2;durP2;ratioP2
26838;SDS011;40088;51.214;6.786;2023-04-28T00:06:37;3.42;;;2.70;;
26838;SDS011;40088;51.214;6.786;2023-04-28T00:16:37;3.95;;;2.95;;
26838;SDS011;40088;51.214;6.786;2023-04-28T00:26:38;4.13;;;2.85;;
26838;SDS011;40088;51.214;6.786;2023-04-28T00:36:38;3.72;;;3.03;;
26838;SDS011;40088;51.214;6.786;2023-04-28T00:46:38;5.25;;;3.10;;
26838;SDS011;40088;51.214;6.786;2023-04-28T00:56:57;3.70;;;2.72;;
26838;SDS011;40088;51.214;6.786;2023-04-28T01:06:57;3.83;;;2.88;;
26838;SDS011;40088;51.214;6.786;2023-04-28T01:16:59;4.80;;;2.90;;
26838;SDS011;40088;51.214;6.786;2023-04-28T01:27:00;2.65;;;2.45;;
26838;SDS011;40088;51.214;6.786;2023-04-28T01:37:00;3.85;;;2.97;;
26838;SDS011;40088;51.214;6.786;2023-04-28T01:47:01;5.30;;;2.72;;
26838;SDS011;40088;51.214;6.786;2023-04-28T01:57:01;2.78;;;2.50;;
26838;SDS011;40088;51.214;6.786;2023-04-28T02:07:02;3.83;;;2.83;;
26838;SDS011;40088;51.214;6.786;2023-04-28T02:17:02;4.57;;;2.55;;
26838;SDS011;40088;51.214;6.786;2023-04-28T02:27:04;4.07;;;2.55;;
26838;SDS011;40088;51.214;6.786;2023-04-28T02:37:04;3.38;;;2.63;;
26838;SDS011;40088;51.214;6.786;2023-04-28T02:47:05;3.40;;;2.40;;
26838;SDS011;40088;51.214;6.786;2023-04-28T02:57:05;4.30;;;2.60;;
26838;SDS011;40088;51.214;6.786;2023-04-28T03:07:06;4.27;;;2.60;;
26838;SDS011;40088;51.214;6.786;2023-04-28T03:17:06;4.83;;;2.73;;
26838;SDS011;40088;51.214;6.786;2023-04-28T03:27:07;3.08;;;2.55;;
26838;SDS011;40088;51.214;6.786;2023-04-28T03:37:07;4.25;;;2.65;;
26838;SDS011;40088;51.214;6.786;2023-04-28T03:47:07;3.92;;;2.40;;
26838;SDS011;40088;51.214;6.786;2023-04-28T03:57:08;4.68;;;2.53;;
26838;SDS011;40088;51.214;6.786;2023-04-28T04:07:09;3.58;;;2.42;;
26838;SDS011;40088;51.214;6.786;2023-04-28T04:17:10;3.05;;;2.42;;
26838;SDS011;40088;51.214;6.786;2023-04-28T04:27:10;3.53;;;2.45;;
26838;SDS011;40088;51.214;6.786;2023-04-28T04:37:11;3.80;;;2.38;;
26838;SDS011;40088;51.214;6.786;2023-04-28T04:47:11;2.87;;;2.40;;
26838;SDS011;40088;51.214;6.786;2023-04-28T04:57:12;3.22;;;2.58;;
26838;SDS011;40088;51.214;6.786;2023-04-28T05:07:12;3.92;;;2.65;;
26838;SDS011;40088;51.214;6.786;2023-04-28T05:17:13;3.30;;;2.47;;
26838;SDS011;40088;51.214;6.786;2023-04-28T05:27:13;3.92;;;2.58;;
26838;SDS011;40088;51.214;6.786;2023-04-28T05:37:13;2.53;;;2.33;;
26838;SDS011;40088;51.214;6.786;2023-04-28T05:47:14;2.83;;;2.38;;
26838;SDS011;40088;51.214;6.786;2023-04-28T05:57:14;3.33;;;2.35;;
26838;SDS011;40088;51.214;6.786;2023-04-28T06:07:15;2.63;;;2.28;;
26838;SDS011;40088;51.214;6.786;2023-04-28T06:17:15;3.58;;;2.30;;
26838;SDS011;40088;51.214;6.786;2023-04-28T06:27:15;5.05;;;2.40;;
26838;SDS011;40088;51.214;6.786;2023-04-28T06:37:15;2.67;;;2.10;;
26838;SDS011;40088;51.214;6.786;2023-04-28T06:47:16;3.00;;;2.33;;
26838;SDS011;40088;51.214;6.786;2023-04-28T06:57:16;7.50;;;2.20;;
26838;SDS011;40088;51.214;6.786;2023-04-28T07:07:16;3.25;;;2.35;;
26838;SDS011;40088;51.214;6.786;2023-04-28T07:17:17;3.55;;;2.30;;
26838;SDS011;40088;51.214;6.786;2023-04-28T07:27:17;3.75;;;2.17;;
26838;SDS011;40088;51.214;6.786;2023-04-28T07:37:17;3.50;;;2.40;;
26838;SDS011;40088;51.214;6.786;2023-04-28T07:47:17;2.50;;;2.30;;
26838;SDS011;40088;51.214;6.786;2023-04-28T07:57:18;2.85;;;2.00;;
26838;SDS011;40088;51.214;6.786;2023-04-28T08:07:18;3.35;;;2.13;;
26838;SDS011;40088;51.214;6.786;2023-04-28T08:17:19;3.30;;;2.08;;
26838;SDS011;40088;51.214;6.786;2023-04-28T08:27:19;3.67;;;2.30;;
26838;SDS011;40088;51.214;6.786;2023-04-28T08:37:20;3.00;;;2.15;;
26838;SDS011;40088;51.214;6.786;2023-04-28T08:47:20;2.70;;;2.13;;
26838;SDS011;40088;51.214;6.786;2023-04-28T08:57:21;3.00;;;2.17;;
26838;SDS011;40088;51.214;6.786;2023-04-28T09:07:22;2.25;;;2.00;;
26838;SDS011;40088;51.214;6.786;2023-04-28T09:17:22;2.63;;;2.03;;
26838;SDS011;40088;51.214;6.786;2023-04-28T09:27:26;3.47;;;2.40;;
26838;SDS011;40088;51.214;6.786;2023-04-28T09:37:27;2.75;;;2.20;;
26838;SDS011;40088;51.214;6.786;2023-04-28T09:47:31;2.78;;;2.20;;
26838;SDS011;40088;51.214;6.786;2023-04-28T09:57:34;2.63;;;2.10;;
26838;SDS011;40088;51.214;6.786;2023-04-28T10:07:35;2.85;;;1.90;;
26838;SDS011;40088;51.214;6.786;2023-04-28T10:17:36;2.75;;;2.17;;
26838;SDS011;40088;51.214;6.786;2023-04-28T10:27:38;2.30;;;2.10;;
26838;SDS011;40088;51.214;6.786;2023-04-28T10:48:11;4.40;;;2.20;;
26838;SDS011;40088;51.214;6.786;2023-04-28T11:18:17;4.63;;;2.80;;
26838;SDS011;40088;51.214;6.786;2023-04-28T11:28:21;2.40;;;2.20;;
26838;SDS011;40088;51.214;6.786;2023-04-28T11:38:21;2.47;;;2.28;;
26838;SDS011;40088;51.214;6.786;2023-04-28T11:48:22;2.72;;;2.40;;
26838;SDS011;40088;51.214;6.786;2023-04-28T11:58:22;2.88;;;2.40;;
26838;SDS011;40088;51.214;6.786;2023-04-28T12:08:27;3.55;;;2.42;;
26838;SDS011;40088;51.214;6.786;2023-04-28T12:18:28;2.22;;;2.03;;
26838;SDS011;40088;51.214;6.786;2023-04-28T12:28:38;3.28;;;2.30;;
26838;SDS011;40088;51.214;6.786;2023-04-28T12:38:46;2.88;;;2.28;;
26838;SDS011;40088;51.214;6.786;2023-04-28T12:48:46;2.47;;;2.22;;
26838;SDS011;40088;51.214;6.786;2023-04-28T12:58:47;3.08;;;2.58;;
26838;SDS011;40088;51.214;6.786;2023-04-28T13:08:47;2.63;;;2.30;;
26838;SDS011;40088;51.214;6.786;2023-04-28T13:18:48;2.73;;;2.30;;
26838;SDS011;40088;51.214;6.786;2023-04-28T13:28:49;2.50;;;2.30;;
26838;SDS011;40088;51.214;6.786;2023-04-28T13:38:50;2.75;;;2.20;;
26838;SDS011;40088;51.214;6.786;2023-04-28T13:48:51;2.65;;;2.22;;
26838;SDS011;40088;51.214;6.786;2023-04-28T13:58:51;3.33;;;2.28;;
26838;SDS011;40088;51.214;6.786;2023-04-28T14:08:51;2.30;;;2.10;;
26838;SDS011;40088;51.214;6.786;2023-04-28T14:18:52;2.13;;;2.00;;
26838;SDS011;40088;51.214;6.786;2023-04-28T14:28:52;2.35;;;2.05;;
26838;SDS011;40088;51.214;6.786;2023-04-28T14:38:53;2.60;;;2.08;;
26838;SDS011;40088;51.214;6.786;2023-04-28T14:48:53;2.30;;;2.10;;
26838;SDS011;40088;51.214;6.786;2023-04-28T14:58:54;1.95;;;1.75;;
26838;SDS011;40088;51.214;6.786;2023-04-28T15:08:54;3.90;;;2.00;;
26838;SDS011;40088;51.214;6.786;2023-04-28T15:18:54;1.92;;;1.65;;
26838;SDS011;40088;51.214;6.786;2023-04-28T15:28:55;1.95;;;1.80;;
26838;SDS011;40088;51.214;6.786;2023-04-28T15:38:55;1.65;;;1.55;;
26838;SDS011;40088;51.214;6.786;2023-04-28T15:48:55;1.85;;;1.70;;
26838;SDS011;40088;51.214;6.786;2023-04-28T15:58:56;1.70;;;1.40;;
26838;SDS011;40088;51.214;6.786;2023-04-28T16:08:56;1.60;;;1.50;;
26838;SDS011;40088;51.214;6.786;2023-04-28T16:18:56;3.15;;;1.58;;
26838;SDS011;40088;51.214;6.786;2023-04-28T16:28:57;1.60;;;1.50;;
26838;SDS011;40088;51.214;6.786;2023-04-28T16:38:57;1.60;;;1.50;;
26838;SDS011;40088;51.214;6.786;2023-04-28T16:48:58;1.77;;;1.60;;
26838;SDS011;40088;51.214;6.786;2023-04-28T16:58:58;1.60;;;1.50;;
26838;SDS011;40088;51.214;6.786;2023-04-28T17:08:58;2.03;;;1.58;;
26838;SDS011;40088;51.214;6.786;2023-04-28T17:18:59;1.50;;;1.40;;
26838;SDS011;40088;51.214;6.786;2023-04-28T17:29:00;1.60;;;1.20;;
26838;SDS011;40088;51.214;6.786;2023-04-28T17:39:01;3.05;;;1.60;;
26838;SDS011;40088;51.214;6.786;2023-04-28T17:49:03;1.50;;;1.40;;
26838;SDS011;40088;51.214;6.786;2023-04-28T17:59:03;1.48;;;1.38;;
26838;SDS011;40088;51.214;6.786;2023-04-28T18:09:04;1.90;;;1.70;;
26838;SDS011;40088;51.214;6.786;2023-04-28T18:19:05;1.50;;;1.40;;
26838;SDS011;40088;51.214;6.786;2023-04-28T18:29:05;2.08;;;1.55;;
26838;SDS011;40088;51.214;6.786;2023-04-28T18:39:05;1.70;;;1.58;;
26838;SDS011;40088;51.214;6.786;2023-04-28T18:49:06;1.63;;;1.53;;
26838;SDS011;40088;51.214;6.786;2023-04-28T18:59:06;1.60;;;1.50;;
26838;SDS011;40088;51.214;6.786;2023-04-28T19:09:07;1.60;;;1.50;;
26838;SDS011;40088;51.214;6.786;2023-04-28T19:19:08;2.38;;;1.60;;
26838;SDS011;40088;51.214;6.786;2023-04-28T19:29:08;1.95;;;1.58;;
26838;SDS011;40088;51.214;6.786;2023-04-28T19:39:08;2.45;;;1.92;;
26838;SDS011;40088;51.214;6.786;2023-04-28T19:49:08;2.25;;;1.90;;
26838;SDS011;40088;51.214;6.786;2023-04-28T19:59:09;1.85;;;1.75;;
26838;SDS011;40088;51.214;6.786;2023-04-28T20:09:09;1.90;;;1.75;;
26838;SDS011;40088;51.214;6.786;2023-04-28T20:19:09;2.40;;;1.92;;
26838;SDS011;40088;51.214;6.786;2023-04-28T20:29:11;4.43;;;2.05;;
26838;SDS011;40088;51.214;6.786;2023-04-28T20:39:11;1.73;;;1.63;;
26838;SDS011;40088;51.214;6.786;2023-04-28T20:49:12;2.67;;;2.00;;
26838;SDS011;40088;51.214;6.786;2023-04-28T20:59:12;1.90;;;1.70;;
26838;SDS011;40088;51.214;6.786;2023-04-28T21:09:12;2.97;;;1.83;;
26838;SDS011;40088;51.214;6.786;2023-04-28T21:19:12;2.17;;;1.98;;
26838;SDS011;40088;51.214;6.786;2023-04-28T21:29:13;2.65;;;2.05;;
26838;SDS011;40088;51.214;6.786;2023-04-28T21:39:14;2.30;;;2.00;;
26838;SDS011;40088;51.214;6.786;2023-04-28T21:49:14;1.83;;;1.63;;
26838;SDS011;40088;51.214;6.786;2023-04-28T21:59:15;1.80;;;1.70;;
26838;SDS011;40088;51.214;6.786;2023-04-28T22:09:16;2.05;;;1.85;;
26838;SDS011;40088;51.214;6.786;2023-04-28T22:19:17;1.92;;;1.63;;
26838;SDS011;40088;51.214;6.786;2023-04-28T22:29:17;1.70;;;1.58;;
26838;SDS011;40088;51.214;6.786;2023-04-28T22:39:17;1.92;;;1.70;;
26838;SDS011;40088;51.214;6.786;2023-04-28T22:49:18;1.65;;;1.50;;
26838;SDS011;40088;51.214;6.786;2023-04-28T22:59:23;2.10;;;1.85;;
26838;SDS011;40088;51.214;6.786;2023-04-28T23:09:25;1.92;;;1.80;;
26838;SDS011;40088;51.214;6.786;2023-04-28T23:19:25;1.95;;;1.75;;
26838;SDS011;40088;51.214;6.786;2023-04-28T23:29:25;2.13;;;1.90;;
26838;SDS011;40088;51.214;6.786;2023-04-28T23:39:26;2.45;;;1.98;;
26838;SDS011;40088;51.214;6.786;2023-04-28T23:49:28;3.10;;;2.47;;
26838;SDS011;40088;51.214;6.786;2023-04-28T23:59:29;2.72;;;2.10;;
